»·PEaware :: N2MD KSAN-KSFO

N2MD :: KSAN-KSFO

FLIGHT INFORMATION

Flight Status: Arrived
Operator: Privately registered:
United States
More flights under this callsign
Pilot: Anonymous 5766 (5766)
Aircraft: CESSNA 525 CITATION JET CJ1
(C525)
More flights by this aircraft type
Origin: KSAN San Diego Intl-Lindbergh
United States
Destination: KSFO San Francisco Intl
United States
More flights between these airports :: More routes between these airports
Route: +PEBLE6 SXC VTU BSR BSR3
File this flight plan on PilotEdge
Remarks:
Altitude:
(Current/Filed)
45,000ft
Speed:
(Current/Filed)
450kts
Departed: 11-Jun-20 08:34 PM
Arrived: 11-Jun-20 09:41 PM
Distance/Time
Traveled:
389nm/1:07
Distance/Time
To Go:
Arrived

Flight Plot

Page will automatically refresh every two minutes.

Flight plan parsing failed; only flown route is shown


Map Options




Map Legend


Flown Route
Filed Route
Departure Airport
Arrival Airport
Navaid (VOR, NDB)
Fix

Horizontal Profiles

Position Reports

Time Latitude Longitude Heading Altitude Ground
Speed
11-Jun-20 20:04 32.732420 -117.176641 194 20ft 0kts
11-Jun-20 20:05 32.732420 -117.176641 194 20ft 0kts
11-Jun-20 20:06 32.732420 -117.176641 194 20ft 0kts
11-Jun-20 20:07 32.732420 -117.176641 194 20ft 0kts
11-Jun-20 20:08 32.732420 -117.176641 194 20ft 0kts
11-Jun-20 20:09 32.732420 -117.176641 194 20ft 0kts
11-Jun-20 20:10 32.732420 -117.176641 194 20ft 0kts
11-Jun-20 20:11 32.732420 -117.176641 194 20ft 0kts
11-Jun-20 20:12 32.732420 -117.176641 194 20ft 0kts
11-Jun-20 20:13 32.732420 -117.176641 194 20ft 0kts
11-Jun-20 20:14 32.732420 -117.176641 194 20ft 0kts
11-Jun-20 20:15 32.732420 -117.176641 194 20ft 0kts
11-Jun-20 20:16 32.732420 -117.176641 194 20ft 0kts
11-Jun-20 20:17 32.732420 -117.176641 194 20ft 0kts
11-Jun-20 20:18 32.732420 -117.176641 194 20ft 0kts
11-Jun-20 20:19 32.732420 -117.176641 194 20ft 0kts
11-Jun-20 20:20 32.732420 -117.176641 194 20ft 0kts
11-Jun-20 20:21 32.732420 -117.176641 194 20ft 0kts
11-Jun-20 20:22 32.732420 -117.176641 194 20ft 0kts
11-Jun-20 20:23 32.732420 -117.176641 194 20ft 0kts
11-Jun-20 20:24 32.732420 -117.176641 194 20ft 0kts
11-Jun-20 20:25 32.732420 -117.176641 194 20ft 0kts
11-Jun-20 20:26 32.732420 -117.176641 194 20ft 0kts
11-Jun-20 20:27 32.732420 -117.176641 194 20ft 0kts
11-Jun-20 20:28 32.732420 -117.176641 194 20ft 0kts
11-Jun-20 20:29 32.732420 -117.176641 194 20ft 0kts
11-Jun-20 20:30 32.732095 -117.176627 166 19ft 4kts
11-Jun-20 20:31 32.731024 -117.175623 132 19ft 0kts
11-Jun-20 20:32 32.731024 -117.175623 132 19ft 0kts
11-Jun-20 20:33 32.731384 -117.180697 286 13ft 122kts
11-Jun-20 20:34 32.749443 -117.226600 304 1615ft 168kts
11-Jun-20 20:35 32.785039 -117.287383 304 4917ft 259kts
11-Jun-20 20:36 32.828566 -117.361674 305 9412ft 261kts
11-Jun-20 20:37 32.875270 -117.440976 304 14312ft 306kts
11-Jun-20 20:38 32.943054 -117.502020 329 19529ft 312kts
11-Jun-20 20:39 33.005654 -117.567346 309 24324ft 296kts
11-Jun-20 20:40 33.059738 -117.648873 308 28671ft 274kts
11-Jun-20 20:41 33.110989 -117.727059 307 30187ft 331kts
11-Jun-20 20:42 33.171490 -117.820427 304 32225ft 368kts
11-Jun-20 20:43 33.216347 -117.940736 291 33980ft 406kts
11-Jun-20 20:44 33.259879 -118.070693 291 36618ft 413kts
11-Jun-20 20:45 33.302394 -118.199075 291 39024ft 413kts
11-Jun-20 20:46 33.344267 -118.326165 291 41020ft 412kts
11-Jun-20 20:47 33.405501 -118.440193 321 42625ft 412kts
11-Jun-20 20:48 33.504312 -118.528239 324 44113ft 412kts
11-Jun-20 20:49 33.605686 -118.614610 325 45002ft 420kts
11-Jun-20 20:50 33.706155 -118.699936 324 45001ft 433kts
11-Jun-20 20:51 33.807983 -118.786604 324 45000ft 435kts
11-Jun-20 20:52 33.913544 -118.876716 324 45000ft 436kts
11-Jun-20 20:53 34.022492 -118.970011 324 44998ft 432kts
11-Jun-20 20:54 34.124388 -119.062752 316 45007ft 430kts
11-Jun-20 20:55 34.209585 -119.164123 315 45000ft 430kts
11-Jun-20 20:56 34.295314 -119.267928 315 45000ft 430kts
11-Jun-20 20:57 34.380631 -119.371752 314 45000ft 431kts
11-Jun-20 20:58 34.465206 -119.475013 314 45000ft 431kts
11-Jun-20 20:59 34.551232 -119.580375 315 44812ft 434kts
11-Jun-20 21:00 34.636836 -119.685547 314 43805ft 431kts
11-Jun-20 21:01 34.721345 -119.789696 314 42804ft 431kts
11-Jun-20 21:02 34.804164 -119.892077 314 41825ft 433kts
11-Jun-20 21:03 34.888630 -119.996816 314 40829ft 435kts
11-Jun-20 21:04 34.974200 -120.103260 314 39824ft 437kts
11-Jun-20 21:05 35.060037 -120.210378 314 38820ft 438kts
11-Jun-20 21:06 35.141213 -120.311990 314 38006ft 434kts
11-Jun-20 21:07 35.224163 -120.416140 314 37778ft 429kts
11-Jun-20 21:08 35.308178 -120.521965 314 36494ft 434kts
11-Jun-20 21:09 35.391917 -120.627778 314 35198ft 434kts
11-Jun-20 21:10 35.474947 -120.733031 313 34206ft 432kts
11-Jun-20 21:11 35.559170 -120.840134 313 33009ft 436kts
11-Jun-20 21:12 35.644311 -120.948756 313 31801ft 439kts
11-Jun-20 21:13 35.730309 -121.058837 313 30585ft 442kts
11-Jun-20 21:14 35.816947 -121.170108 313 29365ft 444kts
11-Jun-20 21:15 35.904326 -121.282712 313 28142ft 447kts
11-Jun-20 21:16 35.992836 -121.397167 313 26908ft 449kts
11-Jun-20 21:17 36.079292 -121.509351 313 25680ft 437kts
11-Jun-20 21:18 36.161272 -121.616064 313 23897ft 394kts
11-Jun-20 21:19 36.241420 -121.693784 324 22459ft 343kts
11-Jun-20 21:20 36.319000 -121.761289 324 20693ft 336kts
11-Jun-20 21:21 36.407360 -121.838131 324 19022ft 405kts
11-Jun-20 21:22 36.506879 -121.896702 330 17232ft 385kts
11-Jun-20 21:23 36.607906 -121.936131 349 15150ft 377kts
11-Jun-20 21:24 36.711328 -121.957796 350 12774ft 353kts
11-Jun-20 21:25 36.807641 -121.976977 350 10389ft 325kts
11-Jun-20 21:26 36.894064 -121.994054 350 8031ft 297kts
11-Jun-20 21:27 36.974945 -122.010042 350 5677ft 282kts
11-Jun-20 21:28 37.053700 -122.025617 350 5842ft 310kts
11-Jun-20 21:29 37.135310 -122.061677 351 5870ft 275kts
11-Jun-20 21:30 37.204715 -122.076553 349 5994ft 232kts
11-Jun-20 21:32 37.267223 -122.091475 348 5955ft 228kts
11-Jun-20 21:33 37.331267 -122.102839 344 5957ft 230kts
11-Jun-20 21:34 37.394858 -122.126828 342 5481ft 245kts
11-Jun-20 21:35 37.455095 -122.150612 342 4302ft 227kts
11-Jun-20 21:36 37.515882 -122.174764 342 3078ft 223kts
11-Jun-20 21:37 37.559383 -122.227632 297 1839ft 219kts
11-Jun-20 21:38 37.587956 -122.295857 298 989ft 196kts
11-Jun-20 21:39 37.609817 -122.348165 298 215ft 134kts
11-Jun-20 21:40 37.620356 -122.373494 296 9ft 46kts
11-Jun-20 21:41 37.624989 -122.383609 335 18ft 19kts
11-Jun-20 21:42 37.627154 -122.384432 26 11ft 16kts
11-Jun-20 21:43 37.628014 -122.383606 105 9ft 0kts

Navigation Log

Ident Type
Flight plan parsing failed, navigation log unavailable